createdAt,value
2022-09-10T00:00:58.461Z,84.33
2022-09-10T00:03:24.857Z,85.02
2022-09-10T00:05:51.656Z,84.93
2022-09-10T00:08:18.542Z,85.03
2022-09-10T00:10:46.857Z,85.18
2022-09-10T00:13:14.610Z,85.34
2022-09-10T00:15:45.397Z,85.39
2022-09-10T00:18:12.466Z,86.28
2022-09-10T00:20:47.856Z,86.65
2022-09-10T00:23:14.642Z,86.85
2022-09-10T00:25:41.094Z,86.75
2022-09-10T00:28:08.472Z,86.92
2022-09-10T00:30:39.882Z,86.89
2022-09-10T00:33:06.606Z,87.15
2022-09-10T00:35:33.700Z,87.13
2022-09-10T00:38:00.121Z,87.39
2022-09-10T00:40:26.672Z,87.05
2022-09-10T00:42:53.037Z,86.94
2022-09-10T00:45:26.820Z,86.94
2022-09-10T00:47:55.173Z,87.23
2022-09-10T00:50:26.389Z,87.46
2022-09-10T00:52:54.476Z,87.68
2022-09-10T00:55:21.187Z,87.67
2022-09-10T00:57:49.780Z,87.59
2022-09-10T01:00:16.552Z,87.84
2022-09-10T01:02:42.907Z,88.05
2022-09-10T01:05:09.713Z,87.84
2022-09-10T01:07:36.153Z,87.99
2022-09-10T01:10:06.842Z,88.02
2022-09-10T01:12:39.080Z,88.25
2022-09-10T01:15:24.640Z,88.48
2022-09-10T01:18:08.976Z,88.50
2022-09-10T01:20:54.244Z,88.59
2022-09-10T01:23:41.420Z,88.88
2022-09-10T01:26:07.822Z,89.04
2022-09-10T01:28:38.464Z,88.81
2022-09-10T01:31:10.765Z,89.06
2022-09-10T01:33:47.682Z,89.00
2022-09-10T01:36:16.517Z,89.22
2022-09-10T01:38:43.259Z,89.05
2022-09-10T01:41:10.188Z,89.13
2022-09-10T01:43:36.652Z,89.23
2022-09-10T01:46:03.260Z,89.19
2022-09-10T01:48:32.778Z,89.15
2022-09-10T01:51:08.798Z,89.60
2022-09-10T01:53:35.139Z,89.80
2022-09-10T01:56:24.702Z,89.81
2022-09-10T01:58:54.368Z,90.04
2022-09-10T02:01:23.976Z,89.95
2022-09-10T02:03:52.168Z,90.27
2022-09-10T02:06:20.990Z,90.09
2022-09-10T02:08:51.677Z,90.20
2022-09-10T02:11:18.072Z,90.17
2022-09-10T02:13:44.479Z,90.23
2022-09-10T02:16:13.765Z,90.50
2022-09-10T02:18:42.469Z,90.62
2022-09-10T02:21:10.248Z,90.73
2022-09-10T02:23:42.565Z,90.63
2022-09-10T02:26:09.450Z,90.44
2022-09-10T02:28:36.815Z,90.41
2022-09-10T02:31:03.234Z,90.54
2022-09-10T02:33:31.038Z,90.93
2022-09-10T02:35:57.827Z,90.91
2022-09-10T02:38:24.186Z,90.56
2022-09-10T02:40:50.556Z,90.92
2022-09-10T02:43:17.432Z,90.71
2022-09-10T02:45:43.955Z,90.75
2022-09-10T02:48:10.333Z,90.68
2022-09-10T02:50:36.717Z,90.70
2022-09-10T02:53:03.068Z,90.45
2022-09-10T02:55:29.410Z,90.80
2022-09-10T02:57:55.938Z,90.95
2022-09-10T03:00:22.645Z,90.88
2022-09-10T03:02:49.058Z,91.20
2022-09-10T03:05:15.470Z,91.43
2022-09-10T03:07:42.961Z,92.15
2022-09-10T03:10:09.682Z,92.30
2022-09-10T03:12:36.651Z,92.21
2022-09-10T03:15:03.101Z,92.12
2022-09-10T03:17:29.513Z,91.61
2022-09-10T03:19:55.846Z,91.57
2022-09-10T03:22:24.674Z,91.40
2022-09-10T03:24:51.008Z,91.51
2022-09-10T03:27:18.135Z,91.48
2022-09-10T03:29:45.286Z,91.39
2022-09-10T03:32:11.588Z,91.58
2022-09-10T03:34:39.916Z,91.34
2022-09-10T03:37:06.314Z,91.28
2022-09-10T03:39:32.723Z,91.18
2022-09-10T03:41:59.132Z,91.61
2022-09-10T03:44:25.489Z,91.65
2022-09-10T03:46:52.552Z,91.63
2022-09-10T03:49:19.677Z,91.82
2022-09-10T03:51:46.051Z,91.77
2022-09-10T03:54:13.928Z,92.04
2022-09-10T03:56:40.331Z,91.92
2022-09-10T03:59:06.729Z,91.87
2022-09-10T04:01:33.202Z,91.91
2022-09-10T04:03:59.511Z,92.05
2022-09-10T04:06:26.155Z,92.40
2022-09-10T04:08:52.797Z,92.72
2022-09-10T04:11:19.417Z,93.20
2022-09-10T04:13:48.993Z,93.16
2022-09-10T04:16:18.840Z,93.32
2022-09-10T04:18:45.335Z,93.46
2022-09-10T04:21:12.185Z,94.11
2022-09-10T04:23:41.157Z,95.11
2022-09-10T04:26:11.416Z,95.13
2022-09-10T04:28:38.372Z,95.21
2022-09-10T04:31:04.732Z,96.05
2022-09-10T04:33:33.225Z,96.38
2022-09-10T04:36:02.294Z,95.77
2022-09-10T04:38:30.425Z,96.03
2022-09-10T04:40:57.905Z,96.00
2022-09-10T04:43:25.647Z,95.93
2022-09-10T04:45:52.632Z,96.56
2022-09-10T04:48:19.064Z,96.24
2022-09-10T04:51:05.377Z,95.75
2022-09-10T04:53:32.395Z,95.33
2022-09-10T04:55:58.741Z,94.87
2022-09-10T04:58:25.126Z,94.84
2022-09-10T05:00:51.673Z,94.35
2022-09-10T05:03:18.110Z,94.15
2022-09-10T05:05:46.003Z,93.98
2022-09-10T05:08:13.162Z,93.61
2022-09-10T05:10:40.790Z,93.64
2022-09-10T05:13:07.391Z,93.65
2022-09-10T05:15:35.751Z,93.50
2022-09-10T05:18:02.328Z,93.61
2022-09-10T05:20:28.705Z,93.39
2022-09-10T05:22:55.065Z,93.35
2022-09-10T05:25:21.689Z,93.19
2022-09-10T05:27:49.224Z,93.01
2022-09-10T05:30:15.618Z,93.02
2022-09-10T05:32:41.969Z,92.88
2022-09-10T05:35:08.702Z,93.91
2022-09-10T05:37:35.141Z,94.51
2022-09-10T05:40:03.819Z,94.38
2022-09-10T05:42:31.022Z,94.22
2022-09-10T05:44:57.343Z,94.24
2022-09-10T05:47:23.761Z,93.78
2022-09-10T05:49:51.859Z,93.77
2022-09-10T05:52:18.244Z,94.09
2022-09-10T05:54:44.649Z,93.74
2022-09-10T05:57:11.521Z,93.63
2022-09-10T05:59:37.854Z,93.50
2022-09-10T06:02:04.327Z,93.34
2022-09-10T06:04:30.730Z,93.47
2022-09-10T06:06:57.109Z,93.77
2022-09-10T06:09:23.614Z,93.15
2022-09-10T06:11:49.967Z,93.64
2022-09-10T06:14:16.340Z,93.76
2022-09-10T06:16:42.795Z,93.52
2022-09-10T06:19:09.690Z,93.63
2022-09-10T06:21:36.097Z,93.38
2022-09-10T06:24:02.593Z,93.07
2022-09-10T06:26:29.017Z,93.08
2022-09-10T06:28:56.808Z,92.84
2022-09-10T06:31:23.289Z,92.72
2022-09-10T06:33:49.663Z,92.84
2022-09-10T06:36:15.998Z,92.95
2022-09-10T06:38:43.889Z,92.72
2022-09-10T06:41:12.057Z,92.46
2022-09-10T06:43:41.433Z,92.55
2022-09-10T06:46:40.701Z,92.27
2022-09-10T06:49:02.870Z,92.09
2022-09-10T06:51:29.789Z,91.63
2022-09-10T06:53:56.880Z,91.26
2022-09-10T06:56:23.293Z,91.22
2022-09-10T06:58:49.664Z,91.08
2022-09-10T07:01:17.884Z,90.78
2022-09-10T07:03:44.643Z,90.75
2022-09-10T07:06:13.308Z,90.41
2022-09-10T07:08:39.988Z,89.90
2022-09-10T07:11:08.071Z,89.56
2022-09-10T07:13:35.264Z,89.33
2022-09-10T07:16:01.811Z,89.31
2022-09-10T07:18:28.821Z,88.73
2022-09-10T07:21:05.974Z,88.61
2022-09-10T07:23:32.366Z,88.03
2022-09-10T07:26:05.687Z,88.41
2022-09-10T07:28:32.200Z,87.82
2022-09-10T07:30:59.070Z,87.76
2022-09-10T07:33:25.611Z,87.42
2022-09-10T07:35:51.948Z,87.03
2022-09-10T07:38:20.567Z,86.26
2022-09-10T07:40:48.277Z,85.88
2022-09-10T07:43:14.870Z,85.48
2022-09-10T07:45:41.789Z,85.24
2022-09-10T07:48:08.240Z,84.71
2022-09-10T07:50:36.363Z,83.82
2022-09-10T07:53:02.917Z,83.12
2022-09-10T07:55:31.563Z,82.41
2022-09-10T07:58:00.133Z,82.04
2022-09-10T08:00:26.752Z,82.04
2022-09-10T08:02:53.121Z,82.25
2022-09-10T08:05:19.512Z,82.32
2022-09-10T08:07:46.528Z,82.02
2022-09-10T08:10:13.430Z,82.38
2022-09-10T08:12:40.561Z,82.77
2022-09-10T08:15:07.918Z,81.64
2022-09-10T08:17:36.664Z,81.31
2022-09-10T08:20:05.997Z,80.82
2022-09-10T08:22:32.349Z,81.01
2022-09-10T08:24:59.084Z,80.67
2022-09-10T08:27:25.483Z,80.78
2022-09-10T08:29:52.656Z,80.73
2022-09-10T08:32:19.053Z,80.97
2022-09-10T08:34:45.400Z,81.07
2022-09-10T08:37:12.474Z,80.47
2022-09-10T08:39:38.928Z,80.18
2022-09-10T08:42:09.331Z,80.74
2022-09-10T08:44:44.578Z,80.60
2022-09-10T08:47:10.934Z,81.13
2022-09-10T08:49:46.503Z,81.49
2022-09-10T08:52:34.373Z,81.54
2022-09-10T08:55:25.160Z,81.35
2022-09-10T08:58:00.985Z,80.89
2022-09-10T09:00:32.155Z,80.22
2022-09-10T09:03:04.720Z,80.14
2022-09-10T09:05:40.522Z,79.99
2022-09-10T09:08:08.557Z,80.52
2022-09-10T09:10:37.605Z,80.94
2022-09-10T09:13:30.535Z,80.85
2022-09-10T09:16:16.838Z,81.05
2022-09-10T09:18:52.713Z,81.03
2022-09-10T09:21:44.351Z,81.03
2022-09-10T09:24:22.852Z,81.28
2022-09-10T09:26:49.927Z,81.50
2022-09-10T09:29:25.378Z,81.62
2022-09-10T09:31:57.938Z,82.08
2022-09-10T09:34:32.518Z,82.52
2022-09-10T09:37:00.830Z,83.40
2022-09-10T09:39:38.692Z,88.10
2022-09-10T09:42:14.834Z,91.30
2022-09-10T09:44:46.561Z,95.18
2022-09-10T09:47:12.959Z,95.73
2022-09-10T09:49:39.537Z,96.11
2022-09-10T09:52:25.106Z,97.64
2022-09-10T09:55:15.396Z,100.00
2022-09-10T09:57:42.775Z,100.00
2022-09-10T10:00:27.873Z,100.00
2022-09-10T10:02:54.312Z,100.00
2022-09-10T10:05:24.602Z,100.00
2022-09-10T10:07:51.030Z,100.00
2022-09-10T10:10:25.239Z,100.00
2022-09-10T10:12:53.180Z,100.00
2022-09-10T10:15:38.865Z,100.00
2022-09-10T10:18:23.905Z,100.00
2022-09-10T10:21:05.654Z,100.00
2022-09-10T10:23:38.984Z,100.00
2022-09-10T10:26:20.863Z,100.00
2022-09-10T10:28:48.455Z,100.00
2022-09-10T10:31:15.397Z,100.00
2022-09-10T10:34:01.145Z,100.00
2022-09-10T10:36:33.013Z,100.00
2022-09-10T10:39:07.450Z,100.00
2022-09-10T10:41:43.116Z,100.00
2022-09-10T10:44:09.422Z,100.00
2022-09-10T10:46:38.839Z,100.00
2022-09-10T10:49:17.554Z,100.00
2022-09-10T10:52:02.776Z,100.00
2022-09-10T10:54:46.163Z,99.65
2022-09-10T10:57:15.430Z,99.53
2022-09-10T10:59:47.877Z,99.89
2022-09-10T11:02:18.471Z,98.68
2022-09-10T11:04:51.680Z,98.23
2022-09-10T11:07:18.282Z,99.03
2022-09-10T11:09:58.927Z,98.89
2022-09-10T11:12:31.741Z,99.07
2022-09-10T11:15:01.345Z,97.71
2022-09-10T11:17:31.505Z,98.51
2022-09-10T11:20:27.985Z,98.09
2022-09-10T11:23:09.475Z,98.82
2022-09-10T11:25:51.762Z,98.30
2022-09-10T11:28:22.277Z,95.87
2022-09-10T11:30:53.369Z,94.40
2022-09-10T11:33:23.407Z,95.32
2022-09-10T11:36:01.601Z,95.04
2022-09-10T11:38:32.439Z,95.39
2022-09-10T11:40:58.827Z,95.41
2022-09-10T11:43:29.153Z,95.19
2022-09-10T11:45:58.572Z,94.49
2022-09-10T11:48:30.275Z,93.63
2022-09-10T11:51:06.921Z,92.09
2022-09-10T11:53:34.203Z,91.36
2022-09-10T11:56:19.386Z,89.24
2022-09-10T11:58:54.732Z,88.64
2022-09-10T12:01:24.087Z,88.38
2022-09-10T12:03:58.210Z,88.34
2022-09-10T12:06:30.169Z,87.05
2022-09-10T12:09:12.181Z,87.23
2022-09-10T12:11:55.868Z,87.67
2022-09-10T12:14:22.420Z,86.13
2022-09-10T12:16:54.151Z,85.51
2022-09-10T12:19:23.184Z,86.48
2022-09-10T12:21:51.795Z,87.02
2022-09-10T12:24:21.155Z,87.38
2022-09-10T12:26:47.644Z,86.79
2022-09-10T12:29:37.189Z,84.94
2022-09-10T12:32:15.389Z,84.34
2022-09-10T12:34:42.185Z,83.33
2022-09-10T12:37:11.580Z,81.93
2022-09-10T12:39:37.966Z,81.17
2022-09-10T12:42:24.077Z,80.41
2022-09-10T12:44:50.469Z,81.01
2022-09-10T12:47:16.839Z,79.27
2022-09-10T12:49:48.271Z,81.21
2022-09-10T12:52:34.936Z,80.90
2022-09-10T12:55:04.080Z,82.48
2022-09-10T12:57:57.293Z,83.64
2022-09-10T13:00:24.561Z,85.48
2022-09-10T13:03:15.158Z,86.40
2022-09-10T13:05:44.229Z,87.39
2022-09-10T13:08:21.790Z,88.79
2022-09-10T13:11:05.713Z,89.69
2022-09-10T13:13:35.224Z,90.64
2022-09-10T13:16:02.928Z,90.29
2022-09-10T13:18:34.046Z,90.02
2022-09-10T13:21:20.322Z,90.31
2022-09-10T13:23:47.982Z,91.01
2022-09-10T13:26:30.988Z,91.16
2022-09-10T13:28:58.267Z,91.21
2022-09-10T13:31:32.506Z,90.46
2022-09-10T13:34:04.982Z,90.42
2022-09-10T13:36:48.001Z,90.94
2022-09-10T13:39:23.729Z,90.72
2022-09-10T13:41:50.031Z,90.55
2022-09-10T13:44:20.392Z,90.16
2022-09-10T13:46:49.088Z,90.11
2022-09-10T13:49:34.089Z,90.42
2022-09-10T13:52:02.157Z,90.78
2022-09-10T13:54:33.248Z,91.72
2022-09-10T13:57:03.259Z,92.79
2022-09-10T13:59:31.490Z,94.16
2022-09-10T14:02:01.028Z,93.26
2022-09-10T14:04:39.932Z,93.55
2022-09-10T14:07:21.512Z,93.67
2022-09-10T14:09:49.389Z,93.88
2022-09-10T14:12:17.546Z,93.20
2022-09-10T14:14:47.728Z,93.41
2022-09-10T14:17:22.788Z,93.43
2022-09-10T14:19:52.704Z,93.12
2022-09-10T14:22:25.331Z,92.81
2022-09-10T14:24:55.958Z,93.07
2022-09-10T14:27:31.125Z,92.72
2022-09-10T14:30:16.011Z,92.63
2022-09-10T14:32:43.150Z,90.71
2022-09-10T14:35:28.144Z,90.25
2022-09-10T14:37:54.518Z,88.91
2022-09-10T14:40:21.926Z,89.21
2022-09-10T14:42:49.466Z,89.59
2022-09-10T14:45:35.698Z,89.65
2022-09-10T14:48:02.140Z,86.88
2022-09-10T14:50:34.273Z,87.60
2022-09-10T14:53:00.620Z,87.99
2022-09-10T14:55:28.810Z,87.79
2022-09-10T14:57:55.834Z,88.49
2022-09-10T15:00:22.504Z,89.28
2022-09-10T15:02:50.579Z,89.45
2022-09-10T15:05:17.761Z,89.89
2022-09-10T15:07:45.227Z,90.24
2022-09-10T15:10:12.332Z,91.17
2022-09-10T15:12:40.285Z,91.40
2022-09-10T15:15:07.184Z,91.68
2022-09-10T15:17:34.169Z,92.34
2022-09-10T15:20:01.472Z,92.17
2022-09-10T15:22:29.538Z,91.98
2022-09-10T15:25:09.589Z,91.84
2022-09-10T15:27:36.814Z,91.09
2022-09-10T15:30:03.313Z,90.39
2022-09-10T15:32:30.763Z,89.66
2022-09-10T15:34:57.599Z,89.50
2022-09-10T15:37:24.276Z,89.57
2022-09-10T15:39:51.665Z,90.03
2022-09-10T15:42:18.131Z,90.11
2022-09-10T15:44:44.503Z,89.45
2022-09-10T15:47:10.979Z,89.37
2022-09-10T15:49:37.322Z,89.46
2022-09-10T15:52:03.725Z,89.22
2022-09-10T15:54:30.055Z,89.65
2022-09-10T15:56:56.450Z,89.49
2022-09-10T15:59:23.252Z,89.09
2022-09-10T16:01:50.199Z,89.22
2022-09-10T16:04:16.711Z,89.24
2022-09-10T16:06:43.715Z,89.15
2022-09-10T16:09:11.368Z,89.38
2022-09-10T16:11:38.760Z,89.12
2022-09-10T16:14:07.089Z,89.60
2022-09-10T16:16:34.033Z,89.77
2022-09-10T16:19:00.791Z,89.85
2022-09-10T16:21:31.173Z,89.63
2022-09-10T16:23:58.930Z,89.86
2022-09-10T16:26:29.950Z,89.85
2022-09-10T16:29:00.207Z,90.04
2022-09-10T16:31:27.893Z,89.95
2022-09-10T16:33:55.336Z,90.14
2022-09-10T16:36:23.475Z,90.14
2022-09-10T16:38:54.391Z,90.60
2022-09-10T16:41:20.722Z,90.72
2022-09-10T16:43:47.081Z,91.02
2022-09-10T16:46:13.607Z,91.27
2022-09-10T16:48:41.392Z,91.11
2022-09-10T16:51:09.494Z,91.56
2022-09-10T16:53:36.560Z,91.80
2022-09-10T16:56:05.179Z,91.75
2022-09-10T16:58:35.776Z,91.74
2022-09-10T17:01:03.555Z,92.08
2022-09-10T17:03:31.328Z,92.44
2022-09-10T17:05:58.436Z,92.50
2022-09-10T17:08:25.546Z,92.70
2022-09-10T17:10:51.953Z,92.95
2022-09-10T17:13:18.948Z,93.31
2022-09-10T17:15:45.540Z,93.05
2022-09-10T17:18:12.244Z,93.19
2022-09-10T17:20:39.530Z,93.74
2022-09-10T17:23:06.189Z,94.49
2022-09-10T17:25:32.900Z,94.01
2022-09-10T17:27:59.299Z,94.27
2022-09-10T17:30:25.650Z,94.85
2022-09-10T17:32:52.017Z,94.69
2022-09-10T17:35:18.814Z,95.00
2022-09-10T17:37:45.690Z,95.53
2022-09-10T17:40:12.735Z,95.68
2022-09-10T17:42:39.252Z,95.79
2022-09-10T17:45:06.410Z,95.97
2022-09-10T17:47:33.238Z,96.00
2022-09-10T17:49:59.617Z,96.94
2022-09-10T17:52:25.994Z,96.84
2022-09-10T17:54:53.895Z,97.12
2022-09-10T17:57:21.188Z,97.19
2022-09-10T17:59:47.561Z,97.58
2022-09-10T18:02:18.443Z,98.15
2022-09-10T18:04:48.182Z,98.71
2022-09-10T18:07:14.499Z,99.02
2022-09-10T18:09:40.892Z,99.45
2022-09-10T18:12:07.506Z,99.57
2022-09-10T18:14:33.981Z,99.35
2022-09-10T18:17:00.479Z,99.09
2022-09-10T18:19:26.919Z,99.40
2022-09-10T18:21:53.252Z,99.55
2022-09-10T18:24:24.239Z,99.47
2022-09-10T18:26:51.885Z,99.38
2022-09-10T18:29:22.598Z,99.49
2022-09-10T18:31:50.832Z,99.28
2022-09-10T18:34:22.974Z,99.79
2022-09-10T18:36:53.462Z,99.88
2022-09-10T18:39:20.548Z,99.78
2022-09-10T18:41:47.069Z,100.00
2022-09-10T18:44:17.615Z,100.00
2022-09-10T18:46:45.152Z,100.00
2022-09-10T18:49:20.333Z,100.00
2022-09-10T18:51:47.830Z,100.00
2022-09-10T18:54:14.996Z,100.00
2022-09-10T18:56:41.954Z,100.00
2022-09-10T18:59:11.258Z,99.73
2022-09-10T19:01:39.087Z,99.45
2022-09-10T19:04:06.138Z,99.47
2022-09-10T19:06:33.920Z,99.34
2022-09-10T19:09:04.019Z,99.63
2022-09-10T19:11:33.071Z,99.54
2022-09-10T19:14:00.053Z,99.59
2022-09-10T19:16:28.070Z,99.91
2022-09-10T19:18:56.368Z,99.92
2022-09-10T19:21:24.061Z,99.68
2022-09-10T19:23:54.236Z,99.69
2022-09-10T19:26:23.729Z,99.62
2022-09-10T19:28:50.423Z,99.74
2022-09-10T19:31:19.504Z,99.47
2022-09-10T19:33:46.873Z,99.63
2022-09-10T19:36:14.682Z,99.48
2022-09-10T19:38:41.452Z,99.48
2022-09-10T19:41:25.504Z,99.29
2022-09-10T19:43:53.069Z,99.24
2022-09-10T19:46:20.851Z,99.06
2022-09-10T19:48:47.622Z,99.40
2022-09-10T19:51:21.885Z,99.02
2022-09-10T19:53:49.460Z,98.89
2022-09-10T19:56:23.353Z,98.97
2022-09-10T19:58:51.052Z,98.81
2022-09-10T20:01:23.430Z,98.92
2022-09-10T20:03:50.968Z,98.82
2022-09-10T20:06:19.374Z,98.64
2022-09-10T20:08:50.412Z,98.74
2022-09-10T20:11:18.536Z,98.71
2022-09-10T20:13:47.600Z,98.98
2022-09-10T20:16:15.849Z,98.80
2022-09-10T20:18:42.458Z,98.96
2022-09-10T20:21:16.637Z,98.97
2022-09-10T20:23:44.025Z,98.65
2022-09-10T20:26:12.062Z,98.79
2022-09-10T20:28:38.419Z,98.48
2022-09-10T20:31:09.097Z,98.64
2022-09-10T20:33:39.240Z,98.87
2022-09-10T20:36:10.780Z,99.11
2022-09-10T20:38:37.577Z,99.32
2022-09-10T20:41:04.707Z,99.70
2022-09-10T20:43:31.083Z,99.64
2022-09-10T20:45:57.545Z,99.88
2022-09-10T20:48:24.491Z,99.69
2022-09-10T20:50:54.867Z,99.47
2022-09-10T20:53:21.653Z,99.42
2022-09-10T20:55:48.211Z,99.38
2022-09-10T20:58:15.388Z,99.07
2022-09-10T21:00:43.088Z,99.34
2022-09-10T21:03:10.028Z,99.59
2022-09-10T21:05:36.526Z,99.42
2022-09-10T21:08:03.790Z,99.29
2022-09-10T21:10:30.192Z,99.41
2022-09-10T21:12:57.007Z,99.67
2022-09-10T21:15:23.380Z,99.77
2022-09-10T21:17:49.766Z,100.00
2022-09-10T21:20:16.165Z,100.00
2022-09-10T21:22:42.520Z,100.00
2022-09-10T21:25:08.992Z,100.00
2022-09-10T21:27:35.385Z,100.00
2022-09-10T21:30:03.940Z,100.00
2022-09-10T21:32:30.920Z,100.00
2022-09-10T21:34:57.257Z,100.00
2022-09-10T21:37:25.351Z,100.00
2022-09-10T21:39:51.762Z,100.00
2022-09-10T21:42:18.455Z,100.00
2022-09-10T21:44:44.774Z,100.00
2022-09-10T21:47:11.110Z,100.00
2022-09-10T21:49:37.472Z,100.00
2022-09-10T21:52:04.161Z,100.00
2022-09-10T21:54:30.577Z,100.00
2022-09-10T21:56:56.941Z,100.00
2022-09-10T21:59:25.706Z,100.00
2022-09-10T22:01:52.986Z,100.00
2022-09-10T22:04:22.754Z,100.00
2022-09-10T22:06:49.666Z,100.00
2022-09-10T22:09:16.723Z,100.00
2022-09-10T22:11:45.832Z,100.00
2022-09-10T22:14:12.204Z,100.00
2022-09-10T22:16:38.867Z,100.00
2022-09-10T22:19:06.757Z,100.00
2022-09-10T22:21:33.429Z,100.00
2022-09-10T22:23:59.807Z,100.00
2022-09-10T22:26:28.190Z,100.00
2022-09-10T22:28:55.872Z,100.00
2022-09-10T22:31:23.783Z,100.00
2022-09-10T22:33:54.682Z,100.00
2022-09-10T22:36:23.680Z,100.00
2022-09-10T22:38:54.607Z,100.00
2022-09-10T22:41:22.974Z,100.00
2022-09-10T22:43:50.103Z,100.00
2022-09-10T22:46:16.972Z,100.00
2022-09-10T22:48:43.660Z,100.00
2022-09-10T22:51:11.796Z,100.00
2022-09-10T22:53:38.870Z,100.00
2022-09-10T22:56:05.213Z,100.00
2022-09-10T22:58:32.931Z,100.00
2022-09-10T23:01:10.303Z,100.00
2022-09-10T23:03:37.264Z,100.00
2022-09-10T23:06:08.393Z,100.00
2022-09-10T23:08:36.061Z,100.00
2022-09-10T23:11:09.724Z,100.00
2022-09-10T23:13:36.509Z,100.00
2022-09-10T23:16:13.151Z,100.00
2022-09-10T23:18:40.336Z,100.00
2022-09-10T23:21:07.202Z,100.00
2022-09-10T23:23:33.631Z,100.00
2022-09-10T23:26:05.139Z,100.00
2022-09-10T23:28:31.885Z,100.00
2022-09-10T23:31:08.755Z,100.00
2022-09-10T23:33:35.209Z,100.00
2022-09-10T23:36:03.520Z,100.00
2022-09-10T23:38:31.311Z,100.00
2022-09-10T23:41:01.078Z,100.00
2022-09-10T23:43:27.838Z,100.00
2022-09-10T23:45:54.995Z,100.00
2022-09-10T23:48:23.870Z,100.00
2022-09-10T23:50:54.177Z,100.00
2022-09-10T23:53:21.627Z,100.00
2022-09-10T23:55:48.418Z,100.00
2022-09-10T23:58:16.902Z,100.00
